Time;durP1;ratioP1;P1;durP2;ratioP2;P2;SDS_P1;SDS_P2;PMS_P1;PMS_P2;Temp;Humidity;BMP_temperature;BMP_pressure;BME280_temperature;BME280_humidity;BME280_pressure;Samples;Min_cycle;Max_cycle;Signal;HPM_P1;HPM_P2
2021/01/19 00:01:14;;;;;;;69.55;52.92;;;;;;;3.06;63.66;101405.03;4941412;28;99307;-74
2021/01/19 00:03:41;;;;;;;76.30;55.95;;;;;;;3.24;62.50;101408.47;4954265;28;98433;-75
2021/01/19 00:06:07;;;;;;;76.45;57.63;;;;;;;3.18;62.85;101405.88;4933949;28;100120;-75
2021/01/19 00:08:33;;;;;;;77.25;58.08;;;;;;;2.98;63.54;101391.28;4946249;28;99048;-75
2021/01/19 00:11:00;;;;;;;77.75;61.75;;;;;;;2.83;64.34;101396.47;4936081;28;96894;-75
2021/01/19 00:13:27;;;;;;;78.80;60.15;;;;;;;2.86;64.02;101391.31;4951913;28;98600;-75
2021/01/19 00:15:54;;;;;;;75.63;55.05;;;;;;;3.03;63.45;101387.00;4956119;28;98731;-75
2021/01/19 00:18:20;;;;;;;75.35;56.55;;;;;;;3.21;62.63;101390.44;4955774;28;96514;-75
2021/01/19 00:20:47;;;;;;;68.68;52.35;;;;;;;3.26;62.18;101378.41;4956779;28;96631;-74
2021/01/19 00:23:13;;;;;;;70.43;54.15;;;;;;;3.21;62.10;101375.84;4955797;28;98469;-75
2021/01/19 00:25:40;;;;;;;69.47;55.55;;;;;;;3.12;62.76;101379.28;4952626;28;98582;-75
2021/01/19 00:28:06;;;;;;;70.18;55.05;;;;;;;2.94;63.25;101371.56;4951671;28;97135;-75
2021/01/19 00:30:33;;;;;;;67.00;52.85;;;;;;;2.94;63.10;101368.16;4952841;28;98335;-74
2021/01/19 00:32:59;;;;;;;73.50;55.30;;;;;;;2.92;63.32;101369.84;4952644;28;98813;-75
2021/01/19 00:35:25;;;;;;;76.20;55.25;;;;;;;2.88;63.39;101359.56;4954354;28;98799;-75
2021/01/19 00:37:53;;;;;;;70.40;53.38;;;;;;;2.91;63.54;101362.97;4953708;28;96598;-75
2021/01/19 00:40:20;;;;;;;80.15;55.72;;;;;;;2.86;63.48;101360.41;4952342;28;96820;-75
2021/01/19 00:42:46;;;;;;;76.90;56.40;;;;;;;2.78;63.82;101367.28;4950271;28;98476;-75
2021/01/19 00:45:13;;;;;;;68.88;53.45;;;;;;;2.90;63.36;101354.41;4951984;28;96575;-75
2021/01/19 00:47:39;;;;;;;75.75;52.40;;;;;;;2.85;63.29;101358.69;4932204;28;96837;-75
2021/01/19 00:50:06;;;;;;;68.65;53.45;;;;;;;2.93;62.88;101357.00;4933856;28;96534;-75
2021/01/19 00:52:33;;;;;;;70.68;53.35;;;;;;;2.81;62.84;101352.69;4947688;28;100719;-75
2021/01/19 00:55:00;;;;;;;65.28;52.88;;;;;;;2.51;63.60;101361.28;4934521;28;100179;-74
2021/01/19 00:57:26;;;;;;;73.25;52.47;;;;;;;2.49;64.14;101370.69;4953097;28;96958;-75
2021/01/19 00:59:52;;;;;;;74.82;56.83;;;;;;;2.47;64.26;101363.84;4949856;28;96873;-75
2021/01/19 01:02:19;;;;;;;73.35;54.40;;;;;;;2.69;63.56;101372.44;4944778;28;98763;-75
2021/01/19 01:04:45;;;;;;;70.90;52.58;;;;;;;2.85;62.88;101358.69;4931098;28;98606;-75
2021/01/19 01:07:11;;;;;;;69.22;53.75;;;;;;;3.01;62.05;101357.81;4931050;28;96849;-75
2021/01/19 01:09:38;;;;;;;62.13;52.58;;;;;;;3.05;61.48;101358.69;4934979;28;96966;-75
2021/01/19 01:12:05;;;;;;;62.20;52.25;;;;;;;2.55;63.60;101364.69;4931481;28;98680;-75
2021/01/19 01:14:32;;;;;;;70.45;52.70;;;;;;;2.50;63.96;101372.41;4932825;28;98415;-75
2021/01/19 01:16:59;;;;;;;75.03;54.40;;;;;;;2.52;64.06;101373.28;4951778;28;96941;-75
2021/01/19 01:19:25;;;;;;;73.15;55.78;;;;;;;2.57;63.49;101371.56;4950876;28;96610;-75
2021/01/19 01:21:52;;;;;;;71.10;56.20;;;;;;;2.41;64.56;101371.56;4950988;28;98631;-75
2021/01/19 01:24:18;;;;;;;70.53;52.55;;;;;;;2.51;64.09;101371.56;4947815;28;98683;-76
2021/01/19 01:26:44;;;;;;;71.35;53.20;;;;;;;2.30;64.67;101381.84;4931220;28;96465;-75
2021/01/19 01:29:11;;;;;;;70.55;54.33;;;;;;;2.17;65.02;101385.22;4931627;28;96659;-75
2021/01/19 01:31:37;;;;;;;68.20;53.70;;;;;;;2.34;64.36;101380.97;4929868;28;97783;-75
2021/01/19 01:34:04;;;;;;;65.38;49.17;;;;;;;1.80;64.79;101378.22;4931958;28;98594;-75
2021/01/19 01:36:38;;;;;;;69.28;48.08;;;;;;;1.61;65.10;101380.75;4933067;28;96536;-75
2021/01/19 01:39:04;;;;;;;67.07;49.78;;;;;;;1.47;64.88;101376.38;4932154;28;97348;-74
2021/01/19 01:41:31;;;;;;;61.25;45.50;;;;;;;1.57;64.07;101375.56;4914672;28;98492;-74
2021/01/19 01:43:57;;;;;;;62.80;46.88;;;;;;;1.63;63.41;101372.16;4938373;28;98614;-75
2021/01/19 01:46:24;;;;;;;65.72;47.22;;;;;;;1.50;63.02;101376.41;4949293;28;96951;-74
2021/01/19 01:48:50;;;;;;;65.55;50.03;;;;;;;1.54;62.90;101379.81;4942772;28;97373;-74
2021/01/19 01:51:16;;;;;;;69.03;52.90;;;;;;;1.42;63.16;101377.19;4933201;28;99289;-75
2021/01/19 01:53:43;;;;;;;67.45;55.42;;;;;;;1.29;63.56;101378.84;4929813;28;98696;-74
2021/01/19 01:56:10;;;;;;;69.55;52.97;;;;;;;1.34;63.35;101374.59;4933742;28;97769;-74
2021/01/19 01:58:37;;;;;;;71.72;53.67;;;;;;;1.34;63.58;101377.16;4932780;28;97303;-74
2021/01/19 02:01:04;;;;;;;71.80;51.72;;;;;;;1.41;63.30;101383.19;4948625;28;98557;-74
2021/01/19 02:03:31;;;;;;;67.93;54.30;;;;;;;1.42;63.63;101387.47;4929254;28;98461;-74
2021/01/19 02:05:57;;;;;;;73.60;54.67;;;;;;;1.59;63.49;101383.28;4944111;28;97589;-75
2021/01/19 02:08:49;;;;;;;72.80;53.58;;;;;;;1.64;63.25;101381.59;4953358;28;96580;-74
2021/01/19 02:11:37;;;;;;;64.07;51.10;;;;;;;1.69;62.84;101389.31;4944368;28;97605;-75
2021/01/19 02:14:28;;;;;;;68.22;50.22;;;;;;;1.73;62.12;101386.78;4950843;28;98557;-75
2021/01/19 02:17:01;;;;;;;64.22;50.83;;;;;;;1.65;62.02;101382.44;4930393;28;96642;-76
2021/01/19 02:20:04;;;;;;;68.22;52.42;;;;;;;1.68;62.28;101387.63;4944184;28;97156;-75
2021/01/19 02:23:01;;;;;;;70.88;52.20;;;;;;;1.60;62.78;101389.28;4940810;28;98624;-75
2021/01/19 02:25:34;;;;;;;68.22;50.47;;;;;;;1.49;63.76;101389.22;4947572;28;98545;-74
2021/01/19 02:28:15;;;;;;;70.18;54.38;;;;;;;1.48;63.64;101393.50;4946191;28;96670;-74
2021/01/19 02:30:55;;;;;;;68.53;54.10;;;;;;;1.37;63.85;101396.88;4928372;28;96579;-72
2021/01/19 02:33:31;;;;;;;72.22;56.53;;;;;;;0.89;63.32;101405.94;4933664;28;98791;-72
2021/01/19 02:36:45;;;;;;;61.95;52.75;;;;;;;0.11;62.25;101397.50;4950891;28;98497;-72
2021/01/19 02:39:14;;;;;;;57.88;49.45;;;;;;;0.14;61.86;101398.38;4932493;28;96663;-72
2021/01/19 02:41:43;;;;;;;58.75;49.65;;;;;;;0.24;62.52;101396.78;4932402;28;97323;-71
2021/01/19 02:44:18;;;;;;;66.35;52.55;;;;;;;0.22;61.79;101389.09;4942896;28;98468;-72
2021/01/19 02:46:50;;;;;;;64.63;53.17;;;;;;;0.14;62.45;101392.41;4945705;28;98574;-71
2021/01/19 02:49:16;;;;;;;63.47;52.35;;;;;;;0.08;63.21;101392.34;4945126;28;96739;-72
2021/01/19 02:51:42;;;;;;;58.28;50.00;;;;;;;0.21;62.25;101383.91;4948191;28;96993;-72
2021/01/19 02:54:09;;;;;;;60.45;50.40;;;;;;;0.40;62.57;101396.09;4931173;28;98663;-72
2021/01/19 02:57:04;;;;;;;62.58;51.47;;;;;;;0.19;62.51;101396.72;4918027;28;98640;-72
2021/01/19 02:59:48;;;;;;;61.60;51.05;;;;;;;0.24;61.80;101401.91;4905676;28;98321;-72
2021/01/19 03:02:33;;;;;;;;;;;;;;;0.62;60.24;101398.88;4933971;28;96874;-72
2021/01/19 03:05:00;;;;;;;59.73;47.17;;;;;;;0.37;60.66;101392.63;4944385;28;98755;-72
2021/01/19 03:07:30;;;;;;;57.88;48.30;;;;;;;0.40;59.28;101380.72;4942807;28;98389;-73
2021/01/19 03:09:58;;;;;;;62.58;51.72;;;;;;;0.38;58.76;101379.84;4947048;28;96655;-72
2021/01/19 03:12:24;;;;;;;62.83;50.63;;;;;;;0.12;58.48;101388.97;4927688;28;96968;-73
2021/01/19 03:14:51;;;;;;;61.97;48.50;;;;;;;-0.12;60.12;101398.09;4928458;28;98546;-72
2021/01/19 03:17:17;;;;;;;58.75;48.25;;;;;;;-0.29;60.45;101391.91;4949306;28;98568;-72
2021/01/19 03:19:43;;;;;;;59.25;50.97;;;;;;;0.03;59.67;101386.28;4949912;28;96822;-73
2021/01/19 03:22:10;;;;;;;58.38;49.38;;;;;;;-0.20;60.44;101386.91;4944467;28;96617;-74
2021/01/19 03:24:37;;;;;;;63.13;49.90;;;;;;;-0.46;60.96;101380.59;4939702;28;98653;-74
2021/01/19 03:27:05;;;;;;;53.15;45.70;;;;;;;-0.04;58.76;101385.38;4945146;28;98808;-74
2021/01/19 03:29:31;;;;;;;57.17;47.08;;;;;;;-0.46;60.67;101403.63;4944574;28;96630;-74
2021/01/19 03:31:57;;;;;;;68.93;49.22;;;;;;;-1.05;62.93;101407.03;4947502;28;96673;-74
2021/01/19 03:34:24;;;;;;;109.45;53.30;;;;;;;-1.26;62.90;101396.44;4947530;28;98488;-74
2021/01/19 03:36:50;;;;;;;98.90;47.55;;;;;;;-1.11;63.47;101392.44;4948045;28;98561;-74
2021/01/19 03:39:17;;;;;;;69.30;47.65;;;;;;;-0.91;62.15;101394.44;4932389;28;96616;-74
2021/01/19 03:41:43;;;;;;;65.10;48.85;;;;;;;-0.83;62.84;101388.59;4945392;28;96729;-74
2021/01/19 03:44:09;;;;;;;64.05;44.72;;;;;;;-0.83;62.25;101387.75;4943821;28;98651;-74
2021/01/19 03:46:36;;;;;;;55.17;46.17;;;;;;;-0.97;63.58;101387.53;4947013;28;98499;-74
2021/01/19 03:49:03;;;;;;;54.97;46.58;;;;;;;-0.82;63.23;101379.22;4932208;28;97217;-74
2021/01/19 03:51:29;;;;;;;54.90;45.08;;;;;;;-0.75;63.38;101375.91;4946323;28;96619;-74
2021/01/19 03:53:55;;;;;;;55.92;45.97;;;;;;;-0.68;63.50;101372.59;4946692;28;98531;-74
2021/01/19 03:56:22;;;;;;;56.75;47.70;;;;;;;-0.48;62.97;101377.13;4932511;28;98556;-74
2021/01/19 03:58:48;;;;;;;52.95;46.17;;;;;;;-0.19;62.04;101365.53;4948455;28;96596;-74
2021/01/19 04:01:14;;;;;;;50.30;41.80;;;;;;;-0.45;63.09;101367.78;4934738;28;97359;-74
2021/01/19 04:03:41;;;;;;;50.90;45.33;;;;;;;-0.32;62.74;101361.09;4943202;28;98540;-74
2021/01/19 04:06:08;;;;;;;59.97;48.28;;;;;;;-0.19;61.97;101364.69;4952661;28;98466;-74
2021/01/19 04:08:35;;;;;;;58.13;50.47;;;;;;;-0.29;63.05;101358.59;4953262;28;96691;-74
2021/01/19 04:11:01;;;;;;;54.63;48.60;;;;;;;0.06;61.31;101350.44;4949885;28;97932;-74
2021/01/19 04:13:28;;;;;;;52.17;44.92;;;;;;;0.19;60.98;101347.16;4952994;28;98538;-74
2021/01/19 04:15:56;;;;;;;60.40;49.90;;;;;;;0.05;61.79;101344.44;4943207;28;98628;-74
2021/01/19 04:18:22;;;;;;;52.72;44.42;;;;;;;-0.23;63.15;101343.28;4933225;28;96943;-75
2021/01/19 04:20:49;;;;;;;53.15;46.15;;;;;;;-0.19;62.57;101341.63;4932613;28;97025;-74
2021/01/19 04:23:16;;;;;;;52.67;45.45;;;;;;;-0.21;62.90;101344.19;4933664;28;97474;-74
2021/01/19 04:25:46;;;;;;;55.80;48.72;;;;;;;-0.06;61.67;101348.59;4936143;28;98343;-75
2021/01/19 04:28:13;;;;;;;57.13;47.22;;;;;;;-0.37;63.14;101357.66;4952394;28;96898;-75
2021/01/19 04:30:40;;;;;;;53.42;45.00;;;;;;;-0.55;62.35;101358.25;4951329;28;96677;-75
2021/01/19 04:33:07;;;;;;;54.47;44.85;;;;;;;-0.09;59.19;101356.25;4932755;28;98695;-75
2021/01/19 04:35:33;;;;;;;53.90;44.38;;;;;;;-0.88;59.68;101356.97;4948638;28;98668;-75
2021/01/19 04:37:59;;;;;;;54.03;43.58;;;;;;;-0.85;59.63;101363.84;4933509;28;96850;-74
2021/01/19 04:40:26;;;;;;;51.20;44.67;;;;;;;-1.31;60.33;101363.13;4934630;28;98776;-75
2021/01/19 04:42:52;;;;;;;53.13;44.25;;;;;;;-1.14;60.21;101364.25;4947486;28;98609;-74
2021/01/19 04:45:19;;;;;;;47.22;41.30;;;;;;;-1.26;59.47;101364.06;4933498;28;97477;-74
2021/01/19 04:47:45;;;;;;;48.90;43.60;;;;;;;-1.52;60.42;101366.19;4951267;28;96641;-74
2021/01/19 04:50:12;;;;;;;50.97;41.50;;;;;;;-1.21;59.87;101365.00;4934125;28;96659;-75
2021/01/19 04:52:41;;;;;;;45.92;40.92;;;;;;;-1.58;61.99;101366.94;4913185;28;98681;-74
2021/01/19 04:55:08;;;;;;;43.63;38.97;;;;;;;-1.56;62.52;101369.50;4950952;28;98372;-74
2021/01/19 04:57:37;;;;;;;44.00;37.17;;;;;;;-1.36;62.21;101370.72;4951746;28;96653;-74
2021/01/19 05:00:08;;;;;;;46.53;40.78;;;;;;;-1.12;61.46;101362.59;4952940;28;96536;-75
2021/01/19 05:02:43;;;;;;;50.75;43.10;;;;;;;-1.02;61.35;101372.94;4951231;28;98593;-74
2021/01/19 05:05:18;;;;;;;51.00;45.45;;;;;;;-0.89;60.77;101364.63;4952085;28;98330;-74
2021/01/19 05:07:58;;;;;;;52.35;46.65;;;;;;;-1.02;62.13;101372.94;4952719;28;96669;-74
2021/01/19 05:10:31;;;;;;;51.95;45.53;;;;;;;-1.14;62.72;101377.03;4935949;28;97047;-74
2021/01/19 05:13:01;;;;;;;53.05;46.60;;;;;;;-1.01;62.69;101379.78;4919564;28;98723;-74
2021/01/19 05:15:28;;;;;;;52.92;45.90;;;;;;;-1.32;63.08;101385.28;4942352;28;98400;-74
2021/01/19 05:17:54;;;;;;;47.00;41.42;;;;;;;-1.23;61.08;101392.22;4899091;28;97298;-74
2021/01/19 05:20:20;;;;;;;49.28;41.08;;;;;;;-1.17;60.67;101397.47;4902600;28;96987;-74
2021/01/19 05:22:47;;;;;;;46.70;41.60;;;;;;;-0.73;59.81;101391.31;4917167;28;98496;-74
2021/01/19 05:25:13;;;;;;;48.78;41.83;;;;;;;-0.74;60.35;101402.41;4949840;28;99608;-74
2021/01/19 05:27:39;;;;;;;50.58;43.40;;;;;;;-0.81;61.12;101403.97;4951419;28;96630;-74
2021/01/19 05:30:10;;;;;;;50.35;43.78;;;;;;;-0.78;61.62;101400.63;4951383;28;96922;-74
2021/01/19 05:32:37;;;;;;;55.10;44.80;;;;;;;-0.70;61.24;101401.56;4931230;28;97451;-74
2021/01/19 05:35:17;;;;;;;50.42;42.45;;;;;;;-0.76;61.72;101393.81;4932626;28;98983;-74
2021/01/19 05:38:00;;;;;;;45.83;39.67;;;;;;;-0.41;59.70;101384.06;4932295;28;96691;-74
2021/01/19 05:40:30;;;;;;;54.40;43.42;;;;;;;-0.68;60.32;101384.56;4940807;28;96953;-74
2021/01/19 05:42:56;;;;;;;57.25;44.60;;;;;;;-0.73;61.01;101386.19;4930133;28;98534;-74
2021/01/19 05:45:23;;;;;;;50.45;45.00;;;;;;;-0.73;60.96;101394.72;4931036;28;98573;-74
2021/01/19 05:47:49;;;;;;;48.85;41.63;;;;;;;-0.70;61.36;101392.19;4950030;28;96669;-74
2021/01/19 05:50:15;;;;;;;48.60;42.85;;;;;;;-0.56;60.76;101397.53;4918041;28;97056;-74
2021/01/19 05:52:42;;;;;;;49.13;43.80;;;;;;;-0.71;61.24;101397.31;4932131;28;98607;-75
2021/01/19 05:55:09;;;;;;;48.67;43.33;;;;;;;-0.35;60.22;101404.63;4952127;28;98829;-74
2021/01/19 05:57:36;;;;;;;51.45;41.50;;;;;;;-0.31;60.48;101401.28;4933631;28;96729;-74
2021/01/19 06:00:06;;;;;;;47.15;42.10;;;;;;;-0.50;61.13;101415.53;4951300;28;96535;-74
2021/01/19 06:02:42;;;;;;;49.13;42.63;;;;;;;-0.33;60.44;101410.63;4931425;28;99779;-74
2021/01/19 06:05:10;;;;;;;53.60;41.70;;;;;;;-0.23;60.17;101406.50;4950326;28;98634;-70
2021/01/19 06:07:43;;;;;;;56.10;46.03;;;;;;;-0.31;61.21;101412.38;4947526;28;96613;-71
2021/01/19 06:10:11;;;;;;;50.78;42.67;;;;;;;-0.01;60.15;101417.00;4933671;28;97811;-70
2021/01/19 06:12:38;;;;;;;51.47;42.05;;;;;;;-0.06;60.41;101407.53;4933495;28;99739;-69
2021/01/19 06:15:05;;;;;;;50.75;41.83;;;;;;;0.06;59.49;101407.72;4930064;28;98458;-69
2021/01/19 06:17:31;;;;;;;52.63;43.88;;;;;;;0.15;59.40;101409.50;4931567;28;96582;-69
2021/01/19 06:19:58;;;;;;;47.10;40.53;;;;;;;0.19;59.34;101406.13;4931776;28;96635;-67
2021/01/19 06:22:26;;;;;;;50.58;42.28;;;;;;;-0.05;60.91;101404.16;4944025;28;98590;-69
2021/01/19 06:24:57;;;;;;;58.25;45.65;;;;;;;-0.15;61.94;101403.19;4948501;28;98469;-69
2021/01/19 06:27:23;;;;;;;52.13;44.30;;;;;;;-0.24;62.31;101397.94;4951592;28;96913;-69
2021/01/19 06:29:59;;;;;;;55.28;44.50;;;;;;;-0.33;63.11;101396.09;4947440;28;96730;-69
2021/01/19 06:32:38;;;;;;;51.88;45.88;;;;;;;-0.53;62.92;101410.38;4949641;28;98667;-66
2021/01/19 06:35:23;;;;;;;53.17;44.47;;;;;;;-0.70;62.43;101417.78;4944141;28;97496;-68
2021/01/19 06:37:51;;;;;;;60.22;47.03;;;;;;;-0.67;61.83;101417.84;4926864;28;96812;-68
2021/01/19 06:40:19;;;;;;;49.83;42.88;;;;;;;-0.73;61.13;101422.03;4942544;28;97259;-68
2021/01/19 06:43:00;;;;;;;55.03;43.30;;;;;;;-0.40;60.17;101411.41;4949753;28;97536;-68
2021/01/19 06:45:26;;;;;;;55.80;43.88;;;;;;;-0.15;60.45;101410.88;4947663;28;97502;-66
2021/01/19 06:47:54;;;;;;;54.58;42.20;;;;;;;-0.43;61.28;101414.75;4949029;28;96735;-66
2021/01/19 06:50:27;;;;;;;51.55;42.70;;;;;;;-0.65;62.01;101408.47;4945677;28;96638;-66
2021/01/19 06:53:17;;;;;;;54.15;45.10;;;;;;;-0.45;61.44;101413.03;4941309;28;98731;-66
2021/01/19 06:55:59;;;;;;;57.33;44.58;;;;;;;-0.67;62.34;101417.84;4928409;28;98471;-66
2021/01/19 06:58:49;;;;;;;50.20;41.97;;;;;;;-0.45;61.40;101423.28;4941894;28;97982;-65
2021/01/19 07:01:28;;;;;;;55.83;45.47;;;;;;;-0.52;61.39;101426.59;4942839;28;96749;-65
2021/01/19 07:04:24;;;;;;;55.85;45.05;;;;;;;-0.70;62.27;101417.78;4944660;28;98720;-67
2021/01/19 07:07:15;;;;;;;55.42;44.55;;;;;;;-0.52;62.01;101429.16;4934045;28;98434;-65
2021/01/19 07:10:16;;;;;;;55.63;45.47;;;;;;;-0.39;61.78;101436.16;4943094;28;98679;-68
2021/01/19 07:13:01;;;;;;;53.70;43.53;;;;;;;-0.17;60.95;101433.03;4948413;28;96700;-63
2021/01/19 07:16:05;;;;;;;56.80;46.95;;;;;;;-0.24;61.56;101433.81;4942454;28;98758;-61
2021/01/19 07:18:51;;;;;;;56.30;47.55;;;;;;;-0.07;61.75;101431.47;4946787;28;98457;-65
2021/01/19 07:21:18;;;;;;;61.67;48.58;;;;;;;0.01;61.89;101427.31;4943443;28;96679;-66
2021/01/19 07:23:44;;;;;;;54.15;45.15;;;;;;;0.26;61.22;101431.00;4942267;28;97250;-74
2021/01/19 07:26:20;;;;;;;55.40;45.33;;;;;;;0.01;60.99;101429.88;4943599;28;98675;-75
2021/01/19 07:28:48;;;;;;;53.22;44.45;;;;;;;0.26;60.23;101429.28;4942168;28;97588;-76
2021/01/19 07:31:19;;;;;;;54.72;41.72;;;;;;;0.29;59.84;101432.75;4944480;28;97156;-76
2021/01/19 07:33:48;;;;;;;56.25;47.28;;;;;;;0.46;59.46;101436.34;4932235;28;96923;-70
2021/01/19 07:36:15;;;;;;;60.67;45.88;;;;;;;0.27;59.23;101432.75;4932532;28;98491;-75
2021/01/19 07:38:41;;;;;;;58.10;47.45;;;;;;;0.43;58.92;101434.63;4951389;28;98580;-76
2021/01/19 07:41:08;;;;;;;57.30;43.47;;;;;;;0.45;58.95;101427.78;4955565;28;96556;-74
2021/01/19 07:43:35;;;;;;;54.28;48.30;;;;;;;0.76;58.14;101435.78;4952708;28;96731;-74
2021/01/19 07:46:30;;;;;;;54.85;46.38;;;;;;;0.51;57.32;101434.69;4953543;28;98633;-69
2021/01/19 07:49:09;;;;;;;59.40;47.40;;;;;;;0.37;58.92;101436.22;4942566;28;98471;-70
2021/01/19 07:51:48;;;;;;;56.45;44.10;;;;;;;0.72;57.55;101431.47;4944632;28;97131;-67
2021/01/19 07:54:21;;;;;;;54.95;45.40;;;;;;;0.66;57.11;101437.41;4926798;28;97642;-66
2021/01/19 07:56:47;;;;;;;49.90;43.00;;;;;;;0.68;57.31;101447.69;4947291;28;98785;-66
2021/01/19 07:59:18;;;;;;;55.67;43.70;;;;;;;1.02;57.00;101448.84;4949098;28;98587;-65
2021/01/19 08:01:57;;;;;;;58.03;45.40;;;;;;;1.15;55.78;101450.66;4951906;28;96603;-66
2021/01/19 08:04:31;;;;;;;50.53;41.33;;;;;;;1.57;56.28;101455.25;4946745;28;97570;-66
2021/01/19 08:06:57;;;;;;;52.55;43.40;;;;;;;1.97;55.05;101450.34;4942925;28;98651;-67
2021/01/19 08:09:23;;;;;;;55.88;46.25;;;;;;;2.34;54.90;101458.16;4953913;28;98451;-66
2021/01/19 08:12:04;;;;;;;60.33;47.47;;;;;;;3.15;52.97;101451.44;4946016;28;97345;-66
2021/01/19 08:14:41;;;;;;;62.58;51.22;;;;;;;3.09;53.26;101454.00;4949870;28;97023;-66
2021/01/19 08:17:07;;;;;;;51.78;45.95;;;;;;;3.24;52.67;101447.09;4948201;28;98507;-68
2021/01/19 08:19:42;;;;;;;55.72;47.38;;;;;;;3.78;50.49;101441.00;4952751;28;98498;-66
2021/01/19 08:22:10;;;;;;;50.23;44.80;;;;;;;4.16;50.17;101445.19;4951741;28;96876;-68
2021/01/19 08:24:42;;;;;;;51.20;44.60;;;;;;;4.30;50.14;101447.66;4947373;28;96816;-67
2021/01/19 08:27:09;;;;;;;48.13;40.55;;;;;;;4.13;50.09;101446.03;4943497;28;98569;-67
2021/01/19 08:29:37;;;;;;;55.47;41.83;;;;;;;4.03;50.84;101448.66;4947465;28;98623;-67
2021/01/19 08:32:04;;;;;;;49.80;42.20;;;;;;;4.31;49.81;101460.56;4946793;28;96787;-68
2021/01/19 08:34:32;;;;;;;50.90;41.72;;;;;;;4.30;48.82;101458.00;4952198;28;96677;-68
2021/01/19 08:37:00;;;;;;;42.45;37.75;;;;;;;4.65;48.61;101466.41;4952111;28;97530;-69
2021/01/19 08:39:26;;;;;;;49.80;43.45;;;;;;;4.57;48.95;101459.56;4957861;28;98594;-70
2021/01/19 08:41:53;;;;;;;46.83;41.72;;;;;;;3.92;49.47;101461.59;4932793;28;98165;-67
2021/01/19 08:44:31;;;;;;;49.13;41.78;;;;;;;3.71;50.54;101471.97;4951918;28;97038;-68
2021/01/19 08:46:57;;;;;;;44.40;38.97;;;;;;;3.81;50.91;101463.34;4950462;28;98537;-67
2021/01/19 08:49:24;;;;;;;48.53;43.28;;;;;;;4.05;50.01;101452.06;4949490;28;98790;-67
2021/01/19 08:51:50;;;;;;;50.72;40.65;;;;;;;4.25;49.50;101464.91;4931129;28;96654;-67
2021/01/19 08:54:17;;;;;;;52.75;45.47;;;;;;;4.21;49.51;101453.75;4931846;28;96987;-67
2021/01/19 08:56:44;;;;;;;52.17;46.05;;;;;;;3.94;50.70;101455.56;4935620;28;98657;-68
2021/01/19 08:59:15;;;;;;;52.63;46.88;;;;;;;3.18;52.40;101444.53;4952474;28;98613;-68
2021/01/19 09:01:52;;;;;;;51.10;43.15;;;;;;;2.98;53.61;101432.50;4943713;28;97129;-67
2021/01/19 09:04:26;;;;;;;54.75;45.00;;;;;;;2.87;54.42;101453.13;4933084;28;96545;-67
2021/01/19 09:07:03;;;;;;;56.25;47.50;;;;;;;3.10;53.87;101458.28;4949184;28;98803;-67
2021/01/19 09:09:30;;;;;;;57.13;46.85;;;;;;;2.95;54.27;101457.44;4956728;28;98720;-67
2021/01/19 09:11:56;;;;;;;63.67;49.30;;;;;;;2.71;55.52;101471.13;4954733;28;97525;-67
2021/01/19 09:14:26;;;;;;;53.45;43.72;;;;;;;3.12;55.11;101453.13;4915102;28;96797;-66
2021/01/19 09:16:53;;;;;;;56.38;46.65;;;;;;;3.17;54.59;101445.41;4919491;28;98833;-65
2021/01/19 09:19:20;;;;;;;55.00;45.15;;;;;;;2.94;56.12;101454.00;4952566;28;98709;-66
2021/01/19 09:21:46;;;;;;;58.08;48.03;;;;;;;3.03;56.15;101446.25;4940176;28;96595;-62
2021/01/19 09:24:16;;;;;;;64.55;47.58;;;;;;;3.28;55.92;101446.25;4931168;28;97011;-66
2021/01/19 09:26:56;;;;;;;53.33;43.65;;;;;;;3.38;55.76;101440.22;4934285;28;98746;-68
2021/01/19 09:29:31;;;;;;;65.93;52.15;;;;;;;3.33;56.64;101441.97;4951040;28;98525;-68
2021/01/19 09:31:59;;;;;;;57.38;50.00;;;;;;;3.52;57.10;101445.38;4948286;28;96913;-66
2021/01/19 09:34:25;;;;;;;61.58;44.65;;;;;;;3.43;56.95;101441.09;4950511;28;96729;-68
2021/01/19 09:36:52;;;;;;;57.97;46.67;;;;;;;3.32;57.19;101433.38;4948552;28;99138;-67
2021/01/19 09:39:25;;;;;;;54.42;44.13;;;;;;;3.29;57.76;101427.34;4953672;28;98590;-67
2021/01/19 09:41:53;;;;;;;54.97;43.97;;;;;;;3.35;57.63;101428.19;4947773;28;96886;-66
2021/01/19 09:44:19;;;;;;;54.60;43.65;;;;;;;3.52;57.60;101433.34;4919984;28;96972;-68
2021/01/19 09:46:46;;;;;;;56.30;43.67;;;;;;;3.23;58.74;101442.81;4927414;28;98578;-67
2021/01/19 09:49:12;;;;;;;62.78;46.22;;;;;;;3.26;58.46;101432.53;4932224;28;98560;-68
2021/01/19 09:51:38;;;;;;;55.42;43.50;;;;;;;3.38;57.94;101419.63;4909796;28;96727;-68
2021/01/19 09:54:05;;;;;;;56.22;43.63;;;;;;;3.22;58.50;101417.91;4924750;28;97018;-68
2021/01/19 09:56:32;;;;;;;51.85;40.60;;;;;;;3.21;59.12;101413.63;4915876;28;98614;-68
2021/01/19 09:59:05;;;;;;;53.65;41.67;;;;;;;3.17;59.91;101423.06;4947425;28;98514;-68
2021/01/19 10:01:32;;;;;;;51.03;41.40;;;;;;;3.41;60.01;101411.88;4937036;28;96975;-69
2021/01/19 10:03:59;;;;;;;54.40;43.92;;;;;;;3.38;59.72;101412.75;4946513;28;96823;-68
2021/01/19 10:06:26;;;;;;;57.00;42.65;;;;;;;3.43;59.53;101412.72;4931306;28;98594;-68
2021/01/19 10:08:56;;;;;;;50.65;41.95;;;;;;;3.42;59.93;101404.16;4941067;28;99085;-68
2021/01/19 10:11:35;;;;;;;49.05;42.15;;;;;;;3.39;60.08;101398.97;4943499;28;96874;-69
2021/01/19 10:14:34;;;;;;;49.38;41.70;;;;;;;3.52;60.42;101384.38;4945196;28;97115;-68
2021/01/19 10:17:12;;;;;;;44.50;38.33;;;;;;;3.84;59.37;101380.81;4947168;28;98518;-66
2021/01/19 10:19:39;;;;;;;45.60;35.15;;;;;;;3.88;58.59;101374.75;4945526;28;98943;-66
2021/01/19 10:22:07;;;;;;;46.78;36.42;;;;;;;3.91;57.93;101375.59;4948807;28;96825;-69
2021/01/19 10:24:34;;;;;;;49.20;38.08;;;;;;;3.91;57.74;101367.88;4941376;28;97922;-66
2021/01/19 10:27:02;;;;;;;47.55;38.42;;;;;;;3.97;58.17;101366.13;4927395;28;98756;-66
2021/01/19 10:29:39;;;;;;;46.88;37.10;;;;;;;3.88;58.73;101377.34;4928213;28;98706;-65
2021/01/19 10:32:11;;;;;;;49.75;42.08;;;;;;;3.69;60.63;101366.25;4938560;28;97118;-67
2021/01/19 10:34:48;;;;;;;51.65;37.90;;;;;;;3.90;60.19;101373.91;4948539;28;96651;-66
2021/01/19 10:37:15;;;;;;;47.88;39.45;;;;;;;3.74;61.20;101368.81;4948016;28;98652;-67
2021/01/19 10:39:47;;;;;;;48.40;38.53;;;;;;;4.02;60.91;101370.41;4953924;28;98564;-67
2021/01/19 10:42:33;;;;;;;48.45;39.33;;;;;;;4.10;60.56;101366.06;4954017;28;97005;-67
2021/01/19 10:45:01;;;;;;;48.38;39.78;;;;;;;3.92;60.70;101358.41;4938480;28;96948;-66
2021/01/19 10:47:40;;;;;;;52.28;39.50;;;;;;;3.81;61.08;101362.75;4934529;28;98601;-72
2021/01/19 10:50:16;;;;;;;48.90;39.58;;;;;;;3.52;62.42;101353.44;4928812;28;97515;-72
2021/01/19 10:52:56;;;;;;;49.03;39.90;;;;;;;3.49;62.14;101353.41;4929505;28;97047;-73
2021/01/19 10:55:22;;;;;;;44.50;37.17;;;;;;;3.55;62.83;101353.41;4929005;28;97055;-73
2021/01/19 10:57:52;;;;;;;46.22;37.67;;;;;;;3.93;61.73;101349.78;4934052;28;98544;-71
2021/01/19 11:00:19;;;;;;;48.15;38.97;;;;;;;4.04;60.94;101353.16;4950224;28;98664;-74
2021/01/19 11:02:45;;;;;;;50.25;38.85;;;;;;;4.12;60.72;101341.09;4932207;28;96839;-73
2021/01/19 11:05:12;;;;;;;45.97;37.95;;;;;;;4.11;60.41;101341.97;4921335;28;96958;-72
2021/01/19 11:07:47;;;;;;;40.20;35.10;;;;;;;4.05;60.61;101349.75;4947894;28;98532;-72
2021/01/19 11:10:14;;;;;;;54.53;42.05;;;;;;;4.09;59.81;101346.25;4946209;28;98446;-69
2021/01/19 11:12:41;;;;;;;45.70;38.90;;;;;;;4.14;59.73;101336.78;4948406;28;97548;-73
2021/01/19 11:15:08;;;;;;;49.15;38.30;;;;;;;3.96;61.03;101339.47;4946127;28;97031;-70
2021/01/19 11:17:36;;;;;;;47.95;39.20;;;;;;;3.84;61.05;101342.97;4949620;28;98491;-68
2021/01/19 11:20:07;;;;;;;44.67;38.70;;;;;;;4.18;60.37;101325.56;4939445;28;99534;-70
2021/01/19 11:22:34;;;;;;;50.85;40.80;;;;;;;4.27;60.54;101331.56;4938783;28;96546;-69
2021/01/19 11:25:00;;;;;;;62.22;48.65;;;;;;;4.25;61.73;101330.69;4931949;28;96962;-62
2021/01/19 11:27:27;;;;;;;70.78;51.25;;;;;;;4.04;62.29;101329.94;4948464;28;98469;-63
2021/01/19 11:29:54;;;;;;;69.85;52.65;;;;;;;4.29;62.08;101328.06;4948515;28;98729;-62